VECAP weather

Aviosuperficie Caposile
San DonĂ  di Piave, Veneto, Italy

Public forecast

Using degrees Celsius for public forecast. Weather courtesy of forecast.io.

METAR (pilot weather report)

Closest report is Venice Marco Polo Airport, 10.0 nm (18.6 km) WSW. Retrieved 2019/09/20 17:20 UTC (0 seconds ago):

LIPZ 201720Z 00000KT CAVOK 17/09 Q1024 NOSIG

TAF (pilot weather forecast)

Closest forecast is Venice Marco Polo Airport, 10.0 nm (18.6 km) WSW. Retrieved 2019/09/20 12:00 UTC (5 hours ago):

TAF LIPZ 201100Z 2012/2118 08012KT 9999 SCT050 BECMG 2016/2018 VRB05KT